Aviation Digital Data Service (ADDS)

Output produced by METARs form (0503 UTC 27 July 2017)
found at http://www.aviationweather.gov/adds/metars/
 
KMSP 270453Z 29003KT 10SM FEW300 22/17 A3003 RMK AO2 SLP164 T02170172
KRNH 270455Z AUTO 00000KT 10SM CLR 18/17 A3003 RMK AO2 T01760169